Time;durP1;ratioP1;P1;durP2;ratioP2;P2;SDS_P1;SDS_P2;PMS_P1;PMS_P2;Temp;Humidity;BMP_temperature;BMP_pressure;BME280_temperature;BME280_humidity;BME280_pressure;Samples;Min_cycle;Max_cycle;Signal;HPM_P1;HPM_P2
2023/08/02 00:02:12;;;;;;;7.10;2.80;;;15.20;99.90;;;;;;5046183;28;20123;-74
2023/08/02 00:04:38;;;;;;;8.80;3.07;;;15.20;99.90;;;;;;5042361;28;20427;-74
2023/08/02 00:07:04;;;;;;;11.37;3.27;;;15.20;99.90;;;;;;5042498;28;20045;-74
2023/08/02 00:09:31;;;;;;;9.63;3.20;;;15.20;99.90;;;;;;5040425;28;20045;-74
2023/08/02 00:11:57;;;;;;;10.27;3.73;;;15.20;99.90;;;;;;5046699;28;20287;-74
2023/08/02 00:14:23;;;;;;;8.03;3.50;;;15.20;99.90;;;;;;5031085;28;20299;-74
2023/08/02 00:16:49;;;;;;;12.60;3.50;;;15.20;99.90;;;;;;5030975;28;20049;-74
2023/08/02 00:19:14;;;;;;;7.83;4.00;;;15.20;99.90;;;;;;5048853;28;20130;-74
2023/08/02 00:21:41;;;;;;;11.10;3.70;;;15.20;99.90;;;;;;5042248;28;20033;-74
2023/08/02 00:24:07;;;;;;;13.53;4.23;;;15.20;99.90;;;;;;5045060;28;20535;-74
2023/08/02 00:26:32;;;;;;;9.23;4.10;;;15.30;99.90;;;;;;5033268;28;20291;-74
2023/08/02 00:28:58;;;;;;;10.77;5.07;;;15.20;99.90;;;;;;5030211;28;20522;-75
2023/08/02 00:31:24;;;;;;;10.03;5.10;;;15.30;99.90;;;;;;5031871;28;20240;-74
2023/08/02 00:33:50;;;;;;;15.10;5.10;;;15.20;99.90;;;;;;5036043;28;20083;-74
2023/08/02 00:36:15;;;;;;;9.43;5.07;;;15.30;99.90;;;;;;5035125;28;20046;-74
2023/08/02 00:38:41;;;;;;;13.53;5.30;;;15.30;99.90;;;;;;5027551;28;20041;-74
2023/08/02 00:41:07;;;;;;;13.97;5.40;;;15.30;99.90;;;;;;5038864;28;20043;-74
2023/08/02 00:43:45;;;;;;;14.00;5.30;;;15.30;99.90;;;;;;5028442;28;20029;-74
2023/08/02 00:46:13;;;;;;;13.83;5.90;;;15.30;99.90;;;;;;5035724;28;20290;-74
2023/08/02 00:48:39;;;;;;;12.53;6.00;;;15.30;99.90;;;;;;5017443;28;20388;-74
2023/08/02 00:51:08;;;;;;;10.40;5.27;;;15.30;99.90;;;;;;5036422;28;20835;-74
2023/08/02 00:53:34;;;;;;;10.70;6.00;;;15.30;99.90;;;;;;5044441;28;20291;-74
2023/08/02 00:56:00;;;;;;;11.13;5.70;;;15.30;99.90;;;;;;5022272;28;20280;-74
2023/08/02 00:58:26;;;;;;;10.83;4.70;;;15.30;99.90;;;;;;5029983;28;20276;-74
2023/08/02 01:00:52;;;;;;;10.50;5.00;;;15.30;99.90;;;;;;5033126;28;20322;-74
2023/08/02 01:03:18;;;;;;;10.87;5.67;;;15.30;99.90;;;;;;5040327;28;20032;-74
2023/08/02 01:05:51;;;;;;;10.07;4.50;;;15.30;99.90;;;;;;5035795;28;20087;-74
2023/08/02 01:08:25;;;;;;;12.20;5.40;;;15.30;99.90;;;;;;5019589;28;20280;-74
2023/08/02 01:11:06;;;;;;;13.20;5.33;;;15.20;99.90;;;;;;5036920;28;20297;-74
2023/08/02 01:13:35;;;;;;;9.57;5.03;;;15.20;99.90;;;;;;5033466;28;20788;-74
2023/08/02 01:16:02;;;;;;;9.47;5.30;;;15.20;99.90;;;;;;5015781;28;20885;-74
2023/08/02 01:18:28;;;;;;;11.23;5.43;;;15.20;99.90;;;;;;5025491;28;20370;-74
2023/08/02 01:20:54;;;;;;;13.67;5.13;;;15.30;99.90;;;;;;5043764;28;20530;-74
2023/08/02 01:23:20;;;;;;;12.83;5.33;;;15.20;99.90;;;;;;5043185;28;20553;-74
2023/08/02 01:25:47;;;;;;;13.20;5.13;;;15.30;99.90;;;;;;5026851;28;20047;-74
2023/08/02 01:28:20;;;;;;;7.83;4.93;;;15.30;99.90;;;;;;5042959;28;20468;-74
2023/08/02 01:30:47;;;;;;;13.27;5.47;;;15.20;99.90;;;;;;5046543;28;20652;-74
2023/08/02 01:33:14;;;;;;;11.20;6.00;;;15.20;99.90;;;;;;5041006;28;20323;-74
2023/08/02 01:35:40;;;;;;;9.90;5.10;;;15.30;99.90;;;;;;5039601;28;20288;-74
2023/08/02 01:38:06;;;;;;;9.93;5.50;;;15.20;99.90;;;;;;5037969;28;20276;-74
2023/08/02 01:40:32;;;;;;;9.70;5.43;;;15.20;99.90;;;;;;5034986;28;20497;-74
2023/08/02 01:42:57;;;;;;;12.33;5.20;;;15.20;99.90;;;;;;5029515;28;20291;-74
2023/08/02 01:45:23;;;;;;;8.97;5.83;;;15.20;99.90;;;;;;5034729;28;20048;-74
2023/08/02 01:47:51;;;;;;;11.67;5.40;;;15.20;99.90;;;;;;5038237;28;20037;-74
2023/08/02 01:50:16;;;;;;;11.70;5.57;;;15.20;99.90;;;;;;5045056;28;20075;-74
2023/08/02 01:52:42;;;;;;;7.23;5.27;;;15.20;99.90;;;;;;5029908;28;20284;-74
2023/08/02 01:55:08;;;;;;;10.67;5.50;;;15.20;99.90;;;;;;5029734;28;20101;-74
2023/08/02 01:57:34;;;;;;;13.43;5.83;;;15.20;99.90;;;;;;5024987;28;20052;-74
2023/08/02 01:59:59;;;;;;;10.10;5.00;;;15.20;99.90;;;;;;5035726;28;20300;-74
2023/08/02 02:02:25;;;;;;;13.77;5.97;;;15.20;99.90;;;;;;5039972;28;20037;-74
2023/08/02 02:04:51;;;;;;;10.87;4.70;;;15.20;99.90;;;;;;5038791;28;20033;-74
2023/08/02 02:07:17;;;;;;;11.93;5.33;;;15.20;99.90;;;;;;5049757;28;20264;-74
2023/08/02 02:09:43;;;;;;;9.37;4.87;;;15.20;99.90;;;;;;5038434;28;20343;-74
2023/08/02 02:12:08;;;;;;;10.83;4.53;;;15.20;99.90;;;;;;5037757;28;20835;-74
2023/08/02 02:14:34;;;;;;;8.13;4.37;;;15.20;99.90;;;;;;5050044;28;20460;-74
2023/08/02 02:17:00;;;;;;;10.73;4.67;;;15.20;99.90;;;;;;5036927;28;20088;-74
2023/08/02 02:19:25;;;;;;;7.40;4.97;;;15.20;99.90;;;;;;5047609;28;20075;-74
2023/08/02 02:21:51;;;;;;;7.93;4.53;;;15.10;99.90;;;;;;5021909;28;20045;-74
2023/08/02 02:24:17;;;;;;;11.67;4.80;;;15.20;99.90;;;;;;5046905;28;20041;-74
2023/08/02 02:26:42;;;;;;;11.83;4.50;;;15.10;99.90;;;;;;5047711;28;20064;-74
2023/08/02 02:29:08;;;;;;;10.43;4.77;;;15.10;99.90;;;;;;5046405;28;20203;-74
2023/08/02 02:31:34;;;;;;;14.63;5.10;;;15.10;99.90;;;;;;5046223;28;20037;-74
2023/08/02 02:33:59;;;;;;;11.20;5.13;;;15.10;99.90;;;;;;5051812;28;20037;-74
2023/08/02 02:36:25;;;;;;;14.57;5.23;;;15.10;99.90;;;;;;5044263;28;20141;-74
2023/08/02 02:38:51;;;;;;;15.07;4.67;;;15.10;99.90;;;;;;5043306;28;20049;-74
2023/08/02 02:41:16;;;;;;;15.20;5.50;;;15.10;99.90;;;;;;5028555;28;20131;-74
2023/08/02 02:43:42;;;;;;;14.77;5.10;;;15.10;99.90;;;;;;5044668;28;20037;-74
2023/08/02 02:46:08;;;;;;;12.97;5.30;;;15.10;99.90;;;;;;5043975;28;20040;-74
2023/08/02 02:48:34;;;;;;;15.83;4.90;;;15.10;99.90;;;;;;5046762;28;20037;-74
2023/08/02 02:50:59;;;;;;;19.93;5.57;;;15.10;99.90;;;;;;5036999;28;20038;-74
2023/08/02 02:53:25;;;;;;;12.63;5.20;;;15.10;99.90;;;;;;5046675;28;20045;-74
2023/08/02 02:55:53;;;;;;;12.67;5.40;;;15.00;99.90;;;;;;5048208;28;20564;-74
2023/08/02 02:58:19;;;;;;;23.03;5.60;;;15.00;99.90;;;;;;5040642;28;20112;-74
2023/08/02 03:00:45;;;;;;;13.57;5.17;;;15.00;99.90;;;;;;5035882;28;20315;-74
2023/08/02 03:03:10;;;;;;;12.60;4.83;;;14.90;99.90;;;;;;5033286;28;20125;-74
2023/08/02 03:05:38;;;;;;;15.80;5.20;;;14.90;99.90;;;;;;5037370;28;20104;-74
2023/08/02 03:08:04;;;;;;;16.73;5.40;;;14.90;99.90;;;;;;5034725;28;20481;-74
2023/08/02 03:10:30;;;;;;;14.27;5.00;;;14.90;99.90;;;;;;5041286;28;20302;-74
2023/08/02 03:12:55;;;;;;;17.10;4.90;;;14.90;99.90;;;;;;5036048;28;20037;-74
2023/08/02 03:15:21;;;;;;;20.60;5.83;;;14.90;99.90;;;;;;5044628;28;20057;-74
2023/08/02 03:17:47;;;;;;;13.63;4.60;;;14.80;99.90;;;;;;5044734;28;20135;-74
2023/08/02 03:20:12;;;;;;;18.07;5.47;;;14.80;99.90;;;;;;5036299;28;20521;-74
2023/08/02 03:22:38;;;;;;;15.60;5.80;;;14.80;99.90;;;;;;5040516;28;20038;-74
2023/08/02 03:25:04;;;;;;;14.63;5.20;;;14.80;99.90;;;;;;5038620;28;20120;-74
2023/08/02 03:27:30;;;;;;;15.23;5.97;;;14.80;99.90;;;;;;5038873;28;20736;-74
2023/08/02 03:29:56;;;;;;;20.73;7.13;;;14.80;99.90;;;;;;5047813;28;20299;-74
2023/08/02 03:32:22;;;;;;;19.33;5.40;;;14.90;99.90;;;;;;5023270;28;20049;-74
2023/08/02 03:34:47;;;;;;;21.17;6.60;;;14.90;99.90;;;;;;5044753;28;20083;-74
2023/08/02 03:37:13;;;;;;;23.23;6.40;;;14.90;99.90;;;;;;5046237;28;20055;-74
2023/08/02 03:39:39;;;;;;;14.50;5.90;;;14.90;99.90;;;;;;5013558;28;20099;-74
2023/08/02 03:42:04;;;;;;;17.20;6.60;;;15.00;99.90;;;;;;5029122;28;20041;-74
2023/08/02 03:44:30;;;;;;;19.80;7.07;;;15.00;99.90;;;;;;5017988;28;20029;-74
2023/08/02 03:46:56;;;;;;;16.00;5.90;;;15.00;99.90;;;;;;5038792;28;20037;-74
2023/08/02 03:49:22;;;;;;;20.60;6.03;;;15.00;99.90;;;;;;5033326;28;20107;-74
2023/08/02 03:51:48;;;;;;;20.40;6.40;;;15.00;99.90;;;;;;5029538;28;20121;-74
2023/08/02 03:54:14;;;;;;;18.13;6.53;;;15.00;99.90;;;;;;5033196;28;20383;-74
2023/08/02 03:56:39;;;;;;;23.53;7.27;;;15.00;99.90;;;;;;5022848;28;20520;-74
2023/08/02 03:59:05;;;;;;;20.80;7.00;;;15.10;99.90;;;;;;5041065;28;20045;-74
2023/08/02 04:01:31;;;;;;;21.90;7.20;;;15.00;99.90;;;;;;5032758;28;20090;-74
2023/08/02 04:03:56;;;;;;;24.07;6.93;;;15.00;99.90;;;;;;5028268;28;20120;-74
2023/08/02 04:06:22;;;;;;;22.63;6.73;;;15.00;99.90;;;;;;5034396;28;20088;-74
2023/08/02 04:08:48;;;;;;;23.30;6.70;;;15.00;99.90;;;;;;5040086;28;20120;-74
2023/08/02 04:11:13;;;;;;;24.70;6.50;;;15.00;99.90;;;;;;5024875;28;20044;-74
2023/08/02 04:13:39;;;;;;;21.00;6.63;;;14.90;99.90;;;;;;5040563;28;20124;-74
2023/08/02 04:16:05;;;;;;;24.40;7.23;;;14.90;99.90;;;;;;5016057;28;20049;-74
2023/08/02 04:18:30;;;;;;;18.00;6.73;;;14.90;99.90;;;;;;5033408;28;20041;-74
2023/08/02 04:20:59;;;;;;;18.97;6.90;;;14.80;99.90;;;;;;5035194;28;20537;-74
2023/08/02 04:23:26;;;;;;;23.17;7.33;;;14.80;99.90;;;;;;5034376;28;20583;-74
2023/08/02 04:25:52;;;;;;;23.03;7.47;;;14.80;99.90;;;;;;5029257;28;20358;-75
2023/08/02 04:28:17;;;;;;;22.33;7.20;;;14.70;99.90;;;;;;5043105;28;20276;-75
2023/08/02 04:30:49;;;;;;;20.17;7.30;;;14.70;99.90;;;;;;5040308;28;20444;-75
2023/08/02 04:33:14;;;;;;;20.47;8.20;;;14.70;99.90;;;;;;5027798;28;20079;-74
2023/08/02 04:35:40;;;;;;;19.67;7.60;;;14.70;99.90;;;;;;5047402;28;20287;-74
2023/08/02 04:38:06;;;;;;;20.73;8.33;;;14.70;99.90;;;;;;5037506;28;20049;-74
2023/08/02 04:40:31;;;;;;;22.70;7.60;;;14.60;99.90;;;;;;5038986;28;20056;-75
2023/08/02 04:42:57;;;;;;;23.23;7.63;;;14.60;99.90;;;;;;5029522;28;20033;-75
2023/08/02 04:45:23;;;;;;;23.57;8.33;;;14.60;99.90;;;;;;5033245;28;20457;-75
2023/08/02 04:47:48;;;;;;;18.30;7.33;;;14.60;99.90;;;;;;5028634;28;20124;-74
2023/08/02 04:50:14;;;;;;;17.43;8.60;;;14.60;99.90;;;;;;5042591;28;20506;-74
2023/08/02 04:52:40;;;;;;;20.33;8.37;;;14.60;99.90;;;;;;5037130;28;20103;-74
2023/08/02 04:55:06;;;;;;;15.30;7.57;;;14.60;99.90;;;;;;5029567;28;20081;-74
2023/08/02 04:57:32;;;;;;;21.13;8.27;;;14.60;99.90;;;;;;5029689;28;20045;-74
2023/08/02 04:59:57;;;;;;;21.73;7.77;;;14.60;99.90;;;;;;5020580;28;20337;-74
2023/08/02 05:02:29;;;;;;;19.00;8.30;;;14.60;99.90;;;;;;5015121;28;20037;-74
2023/08/02 05:04:54;;;;;;;20.63;8.27;;;14.60;99.90;;;;;;5041523;28;20041;-74
2023/08/02 05:07:20;;;;;;;19.70;8.77;;;14.60;99.90;;;;;;5018763;28;20292;-75
2023/08/02 05:09:46;;;;;;;16.80;7.97;;;14.60;99.90;;;;;;5036301;28;20545;-75
2023/08/02 05:12:11;;;;;;;19.37;8.43;;;14.60;99.90;;;;;;5033195;28;20342;-75
2023/08/02 05:14:37;;;;;;;16.87;8.00;;;14.60;99.90;;;;;;5036657;28;20050;-75
2023/08/02 05:17:07;;;;;;;23.57;8.17;;;14.60;99.90;;;;;;4996687;28;20142;-74
2023/08/02 05:19:33;;;;;;;21.80;8.30;;;14.60;99.90;;;;;;4992603;28;20124;-74
2023/08/02 05:21:59;;;;;;;15.40;7.63;;;14.70;99.90;;;;;;5001618;28;20291;-74
2023/08/02 05:24:25;;;;;;;19.43;7.90;;;14.70;99.90;;;;;;4997341;28;20289;-74
2023/08/02 05:26:50;;;;;;;22.60;8.23;;;14.70;99.90;;;;;;5002758;28;20575;-74
2023/08/02 05:29:16;;;;;;;16.33;7.73;;;14.80;99.90;;;;;;5002190;28;20070;-74
2023/08/02 05:31:42;;;;;;;20.57;7.63;;;14.80;99.90;;;;;;5005339;28;20034;-74
2023/08/02 05:34:07;;;;;;;18.57;8.43;;;14.80;99.90;;;;;;4994477;28;20498;-74
2023/08/02 05:36:33;;;;;;;15.17;8.00;;;14.80;99.90;;;;;;5004640;28;20034;-75
2023/08/02 05:38:58;;;;;;;19.50;9.07;;;14.80;99.90;;;;;;5007944;28;20095;-75
2023/08/02 05:41:24;;;;;;;18.20;8.00;;;14.80;99.90;;;;;;5011200;28;20076;-75
2023/08/02 05:43:50;;;;;;;23.00;8.33;;;14.90;99.90;;;;;;5007148;28;20077;-75
2023/08/02 05:46:15;;;;;;;12.93;7.67;;;15.00;99.90;;;;;;5010900;28;20049;-74
2023/08/02 05:48:41;;;;;;;14.97;7.73;;;15.00;99.90;;;;;;5010615;28;20372;-74
2023/08/02 05:51:07;;;;;;;16.50;7.53;;;15.20;99.90;;;;;;5005855;28;20124;-74
2023/08/02 05:53:32;;;;;;;12.37;7.57;;;15.30;99.90;;;;;;5001043;28;20042;-75
2023/08/02 05:55:58;;;;;;;16.50;7.50;;;15.40;99.90;;;;;;5002266;28;20044;-74
2023/08/02 05:58:24;;;;;;;16.40;7.40;;;15.50;99.90;;;;;;5014109;28;20479;-74
2023/08/02 06:00:50;;;;;;;15.93;6.97;;;15.50;99.90;;;;;;5007451;28;20041;-74
2023/08/02 06:03:16;;;;;;;15.80;7.23;;;15.60;99.90;;;;;;4997662;28;20312;-74
2023/08/02 06:05:42;;;;;;;14.83;6.73;;;15.70;99.90;;;;;;5009860;28;20815;-75
2023/08/02 06:08:07;;;;;;;17.13;7.20;;;15.80;99.90;;;;;;5005910;28;20091;-74
2023/08/02 06:10:33;;;;;;;14.80;6.90;;;15.80;99.90;;;;;;5004493;28;20046;-74
2023/08/02 06:12:59;;;;;;;15.50;6.87;;;15.80;99.90;;;;;;4997664;28;20482;-74
2023/08/02 06:15:25;;;;;;;13.43;7.13;;;15.80;99.90;;;;;;5035089;28;20052;-74
2023/08/02 06:17:51;;;;;;;14.30;6.20;;;15.80;99.90;;;;;;5033544;28;20037;-74
2023/08/02 06:20:17;;;;;;;16.23;6.90;;;15.80;99.90;;;;;;5044653;28;20619;-74
2023/08/02 06:22:43;;;;;;;14.23;6.77;;;15.80;99.90;;;;;;5040318;28;20367;-74
2023/08/02 06:25:09;;;;;;;15.97;7.23;;;15.80;99.90;;;;;;5033589;28;20378;-74
2023/08/02 06:27:34;;;;;;;14.93;6.90;;;15.90;99.90;;;;;;5042635;28;20034;-74
2023/08/02 06:30:00;;;;;;;14.63;6.43;;;15.90;99.90;;;;;;5026253;28;20122;-74
2023/08/02 06:32:26;;;;;;;11.03;6.07;;;15.90;99.90;;;;;;5048747;28;20044;-74
2023/08/02 06:34:52;;;;;;;13.67;6.77;;;15.90;99.90;;;;;;5043539;28;20971;-74
2023/08/02 06:37:17;;;;;;;14.53;6.23;;;15.90;99.90;;;;;;5043021;28;20045;-74
2023/08/02 06:39:43;;;;;;;15.83;6.83;;;16.00;99.90;;;;;;5046440;28;20884;-74
2023/08/02 06:42:09;;;;;;;12.90;5.60;;;16.00;99.90;;;;;;5047186;28;20033;-74
2023/08/02 06:44:34;;;;;;;12.30;5.63;;;16.10;99.90;;;;;;5047716;28;20079;-74
2023/08/02 06:47:00;;;;;;;14.20;6.07;;;16.10;99.90;;;;;;5041490;28;20032;-74
2023/08/02 06:49:26;;;;;;;13.47;6.40;;;16.10;99.90;;;;;;5036323;28;20045;-74
2023/08/02 06:51:51;;;;;;;14.07;6.00;;;16.10;99.90;;;;;;5035705;28;20037;-74
2023/08/02 06:54:17;;;;;;;13.17;5.67;;;16.10;99.90;;;;;;5040623;28;20440;-74
2023/08/02 06:56:43;;;;;;;12.50;5.50;;;16.00;99.90;;;;;;5044468;28;20119;-74
2023/08/02 06:59:08;;;;;;;13.27;5.10;;;16.10;99.90;;;;;;5037757;28;20060;-74
2023/08/02 07:01:34;;;;;;;15.03;5.50;;;16.10;99.90;;;;;;5045232;28;20091;-74
2023/08/02 07:04:00;;;;;;;17.60;6.53;;;16.00;99.90;;;;;;5036437;28;20130;-74
2023/08/02 07:06:25;;;;;;;14.20;5.90;;;16.00;99.90;;;;;;5045934;28;20041;-74
2023/08/02 07:08:51;;;;;;;16.77;6.00;;;16.00;99.90;;;;;;5029687;28;20033;-74
2023/08/02 07:11:18;;;;;;;14.33;5.93;;;15.90;99.90;;;;;;5042880;28;20034;-74
2023/08/02 07:13:45;;;;;;;14.87;5.43;;;15.90;99.90;;;;;;5041998;28;20036;-74
2023/08/02 07:16:12;;;;;;;11.23;5.20;;;15.80;99.90;;;;;;5032580;28;20296;-74
2023/08/02 07:18:38;;;;;;;15.20;6.47;;;15.80;99.90;;;;;;5045082;28;20291;-74
2023/08/02 07:21:05;;;;;;;11.30;5.87;;;15.70;99.90;;;;;;5039908;28;20382;-75
2023/08/02 07:23:31;;;;;;;14.33;7.20;;;15.70;99.90;;;;;;5040363;28;20373;-75
2023/08/02 07:25:57;;;;;;;14.20;6.03;;;15.70;99.90;;;;;;5042081;28;20693;-75
2023/08/02 07:28:23;;;;;;;10.93;6.40;;;15.60;99.90;;;;;;5052189;28;20338;-74
2023/08/02 07:30:48;;;;;;;11.87;5.80;;;15.60;99.90;;;;;;5039236;28;20048;-75
2023/08/02 07:33:14;;;;;;;11.63;5.93;;;15.60;99.90;;;;;;5039617;28;20045;-75
2023/08/02 07:35:41;;;;;;;13.60;6.40;;;15.60;99.90;;;;;;5041216;28;20044;-75
2023/08/02 07:38:06;;;;;;;14.93;6.50;;;15.50;99.90;;;;;;5044562;28;20072;-74
2023/08/02 07:40:32;;;;;;;12.73;5.90;;;15.50;99.90;;;;;;5029222;28;20323;-77
2023/08/02 07:43:01;;;;;;;13.43;6.10;;;15.50;99.90;;;;;;5054481;28;20401;-76
2023/08/02 07:45:28;;;;;;;15.70;6.57;;;15.50;99.90;;;;;;5044394;28;20268;-76
2023/08/02 07:47:54;;;;;;;15.33;6.47;;;15.50;99.90;;;;;;5052374;28;20029;-77
2023/08/02 07:50:20;;;;;;;15.60;6.30;;;15.50;99.90;;;;;;5041729;28;21939;-77
2023/08/02 07:52:45;;;;;;;13.70;5.63;;;15.50;99.90;;;;;;5049026;28;20773;-77
2023/08/02 07:55:21;;;;;;;12.13;5.87;;;15.40;99.90;;;;;;5051357;28;20548;-76
2023/08/02 07:57:46;;;;;;;;;;;15.40;99.90;;;;;;5029047;28;20044;-74
2023/08/02 08:00:12;;;;;;;15.37;6.00;;;15.30;99.90;;;;;;5036581;28;19924;-75
2023/08/02 08:02:39;;;;;;;11.50;5.97;;;15.30;99.90;;;;;;5071220;28;20093;-75
2023/08/02 08:05:05;;;;;;;9.43;5.30;;;15.30;99.90;;;;;;5049515;28;20382;-74
2023/08/02 08:07:32;;;;;;;13.13;5.20;;;15.20;99.90;;;;;;5051810;28;20780;-75
2023/08/02 08:09:58;;;;;;;10.47;5.50;;;15.20;99.90;;;;;;5054255;28;20292;-75
2023/08/02 08:12:27;;;;;;;10.00;5.33;;;15.20;99.90;;;;;;5025189;28;20346;-75
2023/08/02 08:14:53;;;;;;;11.97;5.50;;;15.10;99.90;;;;;;5049156;28;20053;-75
2023/08/02 08:17:19;;;;;;;13.63;5.37;;;15.10;99.90;;;;;;5039665;28;20953;-75
2023/08/02 08:19:45;;;;;;;9.83;4.97;;;15.00;99.90;;;;;;5057370;28;20362;-75
2023/08/02 08:22:10;;;;;;;13.23;5.33;;;15.00;99.90;;;;;;5045497;28;20291;-75
2023/08/02 08:24:36;;;;;;;11.93;4.90;;;15.00;99.90;;;;;;5055162;28;20041;-75
2023/08/02 08:27:02;;;;;;;11.00;4.90;;;15.00;99.90;;;;;;5046597;28;20094;-75
2023/08/02 08:29:28;;;;;;;10.53;4.80;;;15.00;99.90;;;;;;5034989;28;20051;-75
2023/08/02 08:31:54;;;;;;;8.70;4.57;;;15.00;99.90;;;;;;5052754;28;20420;-75
2023/08/02 08:34:20;;;;;;;8.63;4.93;;;15.00;99.90;;;;;;5047944;28;20279;-75
2023/08/02 08:36:46;;;;;;;8.70;4.33;;;15.00;99.90;;;;;;5036783;28;20157;-75
2023/08/02 08:39:12;;;;;;;8.47;4.20;;;15.10;99.90;;;;;;5047907;28;20045;-75
2023/08/02 08:41:38;;;;;;;8.73;4.27;;;15.10;99.90;;;;;;5036028;28;20147;-75
2023/08/02 08:44:04;;;;;;;10.50;4.60;;;15.10;99.90;;;;;;5047579;28;20041;-76
2023/08/02 08:46:32;;;;;;;7.03;4.67;;;15.10;99.90;;;;;;5060003;28;20317;-74
2023/08/02 08:49:02;;;;;;;10.00;5.07;;;15.00;99.90;;;;;;5031125;28;20038;-75
2023/08/02 08:51:33;;;;;;;8.30;4.50;;;15.00;99.90;;;;;;5050336;28;20280;-75
2023/08/02 08:54:05;;;;;;;8.70;4.17;;;15.00;99.90;;;;;;5047685;28;20286;-76
2023/08/02 08:56:34;;;;;;;11.10;4.70;;;15.00;99.90;;;;;;5030219;28;20303;-75
2023/08/02 08:59:01;;;;;;;9.17;4.47;;;15.10;99.90;;;;;;5051347;28;20282;-75
2023/08/02 09:01:28;;;;;;;9.97;4.53;;;15.10;99.90;;;;;;5034923;28;20279;-75
2023/08/02 09:03:56;;;;;;;9.63;4.87;;;15.20;99.90;;;;;;5046384;28;20283;-75
2023/08/02 09:06:23;;;;;;;8.40;4.93;;;15.20;99.90;;;;;;5046515;28;20284;-74
2023/08/02 09:08:49;;;;;;;9.83;5.07;;;15.30;99.90;;;;;;5036734;28;20322;-75
2023/08/02 09:11:17;;;;;;;8.97;5.67;;;15.40;99.90;;;;;;5043851;28;20346;-74
2023/08/02 09:13:43;;;;;;;7.13;5.10;;;15.40;99.90;;;;;;5042699;28;20044;-74
2023/08/02 09:16:16;;;;;;;8.70;5.80;;;15.40;99.90;;;;;;5042067;28;20295;-75
2023/08/02 09:18:44;;;;;;;8.43;6.17;;;15.50;99.90;;;;;;5051250;28;20370;-74
2023/08/02 09:21:14;;;;;;;8.47;6.20;;;15.50;99.90;;;;;;5028475;28;20315;-74
2023/08/02 09:23:44;;;;;;;9.33;6.80;;;15.60;99.90;;;;;;5040810;28;20356;-74
2023/08/02 09:26:18;;;;;;;10.27;6.33;;;15.60;99.90;;;;;;5042517;28;20366;-75
2023/08/02 09:28:59;;;;;;;10.87;6.37;;;15.80;99.90;;;;;;5040807;28;20351;-75
2023/08/02 09:31:26;;;;;;;12.10;7.20;;;15.80;99.90;;;;;;5040006;28;20337;-75
2023/08/02 09:33:53;;;;;;;10.07;6.17;;;15.90;99.90;;;;;;5046184;28;20283;-75
2023/08/02 09:36:22;;;;;;;8.93;6.30;;;15.90;99.90;;;;;;5042676;28;20283;-75
2023/08/02 09:39:03;;;;;;;8.97;5.90;;;15.90;99.90;;;;;;5044588;28;20275;-75
2023/08/02 09:41:30;;;;;;;8.27;6.00;;;15.90;99.90;;;;;;5042404;28;20799;-75
2023/08/02 09:43:57;;;;;;;12.07;6.73;;;15.90;99.90;;;;;;5039152;28;20279;-75
2023/08/02 09:46:31;;;;;;;7.83;6.43;;;15.80;99.90;;;;;;5043910;28;20279;-75
2023/08/02 09:49:17;;;;;;;10.23;6.43;;;15.90;99.90;;;;;;5037767;28;20314;-75
2023/08/02 09:51:44;;;;;;;9.40;6.50;;;15.90;99.90;;;;;;5040781;28;20280;-75
2023/08/02 09:54:14;;;;;;;9.60;6.90;;;16.00;99.90;;;;;;5041644;28;20314;-75
2023/08/02 09:56:42;;;;;;;10.27;5.83;;;16.10;99.90;;;;;;5027317;28;20268;-75
2023/08/02 09:59:08;;;;;;;7.17;5.70;;;16.10;99.90;;;;;;5037655;28;20319;-75
2023/08/02 10:01:36;;;;;;;8.60;5.87;;;16.10;99.90;;;;;;5018005;28;20350;-75
2023/08/02 10:04:10;;;;;;;6.43;5.70;;;16.10;99.90;;;;;;5043913;28;20291;-75
2023/08/02 10:06:42;;;;;;;6.17;5.57;;;16.10;99.90;;;;;;5038187;28;20292;-75
2023/08/02 10:09:10;;;;;;;8.07;6.07;;;16.10;99.90;;;;;;5036501;28;20295;-75
2023/08/02 10:11:43;;;;;;;7.67;5.13;;;16.20;99.90;;;;;;5038606;28;20350;-75
2023/08/02 10:14:09;;;;;;;9.80;5.13;;;16.10;99.90;;;;;;5041392;28;20671;-75
2023/08/02 10:16:37;;;;;;;6.07;5.30;;;16.10;99.90;;;;;;5035839;28;20295;-75
2023/08/02 10:19:03;;;;;;;6.70;5.47;;;16.10;99.90;;;;;;5037821;28;20299;-74
2023/08/02 10:21:34;;;;;;;6.60;5.47;;;16.10;99.90;;;;;;5040426;28;20841;-74
2023/08/02 10:24:00;;;;;;;5.00;4.47;;;16.10;99.90;;;;;;5038324;28;20291;-75
2023/08/02 10:26:29;;;;;;;5.83;4.30;;;16.10;99.90;;;;;;5038470;28;20750;-75
2023/08/02 10:28:57;;;;;;;4.80;3.70;;;16.00;99.90;;;;;;5040074;28;20280;-75
2023/08/02 10:31:23;;;;;;;4.60;3.43;;;15.90;99.90;;;;;;5035887;28;20272;-76
2023/08/02 10:33:49;;;;;;;5.73;3.90;;;15.80;99.90;;;;;;5049174;28;20408;-75
2023/08/02 10:36:15;;;;;;;4.43;4.03;;;15.80;99.90;;;;;;5046009;28;21065;-75
2023/08/02 10:38:47;;;;;;;5.60;3.90;;;15.80;99.90;;;;;;5040408;28;20280;-76
2023/08/02 10:41:13;;;;;;;4.60;3.40;;;15.90;99.90;;;;;;5044280;28;20041;-76
2023/08/02 10:43:54;;;;;;;3.80;2.77;;;15.90;99.90;;;;;;5047035;28;20279;-75
2023/08/02 10:46:25;;;;;;;5.53;3.10;;;15.90;99.90;;;;;;5044617;28;20287;-75
2023/08/02 10:48:51;;;;;;;3.07;2.77;;;15.90;99.90;;;;;;5027823;28;20290;-75
2023/08/02 10:51:34;;;;;;;3.60;3.07;;;16.00;99.90;;;;;;5047008;28;20276;-75
2023/08/02 10:54:21;;;;;;;3.00;2.70;;;16.00;99.90;;;;;;5034750;28;21173;-75
2023/08/02 10:56:53;;;;;;;3.23;2.60;;;16.20;99.90;;;;;;5025857;28;20399;-75
2023/08/02 10:59:25;;;;;;;2.87;2.00;;;16.30;99.90;;;;;;5041011;28;20307;-75
2023/08/02 11:01:56;;;;;;;3.63;2.20;;;16.50;99.90;;;;;;5039491;28;20353;-75
2023/08/02 11:04:23;;;;;;;2.43;2.00;;;16.80;99.90;;;;;;5038059;28;20359;-75
2023/08/02 11:06:49;;;;;;;1.93;1.67;;;16.90;99.90;;;;;;5042327;28;20288;-75
2023/08/02 11:09:15;;;;;;;3.03;1.90;;;17.00;99.90;;;;;;5036581;28;21919;-75
2023/08/02 11:11:40;;;;;;;2.77;2.10;;;17.00;99.90;;;;;;5044766;28;20036;-75
2023/08/02 11:14:06;;;;;;;2.57;1.70;;;17.20;99.90;;;;;;5035703;28;20094;-75
2023/08/02 11:16:39;;;;;;;1.20;1.10;;;17.50;99.90;;;;;;5039866;28;20079;-75
2023/08/02 11:19:10;;;;;;;1.90;1.60;;;17.60;99.90;;;;;;5041023;28;20049;-75
2023/08/02 11:21:36;;;;;;;1.40;1.20;;;17.80;99.90;;;;;;5032555;28;20045;-75
2023/08/02 11:24:03;;;;;;;2.20;1.33;;;18.00;99.90;;;;;;5043476;28;20037;-75
2023/08/02 11:26:30;;;;;;;2.00;1.30;;;18.20;99.90;;;;;;5044829;28;20065;-75
2023/08/02 11:28:56;;;;;;;2.03;1.30;;;18.30;99.90;;;;;;5037165;28;20039;-75
2023/08/02 11:31:24;;;;;;;1.93;1.37;;;18.30;99.90;;;;;;5038110;28;20616;-75
2023/08/02 11:33:50;;;;;;;1.83;1.20;;;18.40;99.90;;;;;;5050892;28;20044;-75
2023/08/02 11:36:16;;;;;;;1.70;1.30;;;18.60;99.90;;;;;;5054454;28;20041;-74
2023/08/02 11:38:42;;;;;;;2.30;1.50;;;18.60;99.90;;;;;;5051801;28;20098;-75
2023/08/02 11:41:21;;;;;;;1.77;1.40;;;18.60;99.90;;;;;;5052360;28;20592;-75
2023/08/02 11:43:48;;;;;;;2.20;2.00;;;18.60;99.90;;;;;;5061910;28;21454;-76
2023/08/02 11:46:22;;;;;;;1.80;1.60;;;18.50;99.90;;;;;;5060110;28;20393;-75
2023/08/02 11:48:48;;;;;;;3.03;2.30;;;18.50;99.90;;;;;;5047911;28;20033;-75
2023/08/02 11:51:16;;;;;;;3.20;2.40;;;18.50;99.90;;;;;;5026697;28;20230;-75
2023/08/02 11:53:56;;;;;;;2.67;2.47;;;18.40;99.90;;;;;;5024991;28;20049;-75
2023/08/02 11:56:23;;;;;;;2.40;2.20;;;18.40;99.90;;;;;;5039793;28;20045;-75
2023/08/02 11:58:50;;;;;;;2.77;2.40;;;18.30;99.90;;;;;;5041390;28;20041;-76
2023/08/02 12:01:16;;;;;;;3.43;2.47;;;18.30;99.90;;;;;;5052895;28;20461;-75
2023/08/02 12:03:55;;;;;;;2.50;2.30;;;18.30;99.90;;;;;;5047176;28;20063;-76
2023/08/02 12:06:21;;;;;;;3.20;2.80;;;18.30;99.90;;;;;;5054139;28;20029;-75
2023/08/02 12:08:59;;;;;;;4.60;3.20;;;18.40;99.90;;;;;;5027411;28;20095;-75
2023/08/02 12:11:27;;;;;;;4.03;2.87;;;18.60;99.90;;;;;;5035736;28;20045;-76
2023/08/02 12:13:58;;;;;;;2.97;2.67;;;18.90;99.90;;;;;;5045401;28;20044;-75
2023/08/02 12:16:23;;;;;;;3.50;2.30;;;19.30;99.90;;;;;;5050761;28;20049;-75
2023/08/02 12:18:53;;;;;;;3.13;2.20;;;19.70;99.90;;;;;;5061392;28;20037;-74
2023/08/02 12:21:20;;;;;;;2.33;2.13;;;19.90;99.90;;;;;;5067101;28;20046;-74
2023/08/02 12:23:46;;;;;;;2.47;2.27;;;20.00;99.90;;;;;;5042178;28;20057;-75
2023/08/02 12:26:11;;;;;;;4.00;2.63;;;20.20;99.90;;;;;;5025121;28;20040;-75
2023/08/02 12:28:45;;;;;;;3.20;2.07;;;20.40;99.90;;;;;;5053936;28;20072;-75
2023/08/02 12:31:11;;;;;;;3.87;1.73;;;20.50;99.90;;;;;;5057066;28;20041;-75
2023/08/02 12:33:37;;;;;;;6.40;2.57;;;20.60;99.90;;;;;;5048638;28;20043;-74
2023/08/02 12:36:03;;;;;;;2.80;1.57;;;20.70;99.90;;;;;;5042927;28;20064;-75
2023/08/02 12:38:30;;;;;;;4.17;1.80;;;20.80;99.90;;;;;;5045050;28;20052;-76
2023/08/02 12:41:03;;;;;;;5.17;1.37;;;20.90;99.90;;;;;;5037938;28;20060;-75